Nashville, TN (37204)

4:48 AM CDT on September 15, 2014 (GMT -0500)
Radnor Lake | Change Station
CLOSE
Current Station
Personal Weather Station
Location: Nashville, TN
Elevation: 866 ft
Nearby Weather Stations

Elev 866 ft 36.07 °N, 86.80 °W | Updated 36 seconds ago

Mostly Cloudy
Mostly Cloudy
56.8 °F
Feels Like 56.8 °F
N
0.0
Wind Variable Wind from South
Gusts 0.0 mph

Today
High -- | Low -- °F
--% Chance of Precip.
Yesterday
High -- | Low -- °F
Precip. -- in
6:29 AM 6:54 PM
Waning Gibbous, 57% visible
Pressure 30.17 in
Visibility 10.0 miles
Clouds Mostly Cloudy 25000 ft
Dew Point 57 °F
Humidity 99%
Rainfall 0.00 in
Snow Depth Not available.
UV 0 out of 12
Pollen 8.20 out of 12
Ozone Good
PM2.5 Good
Flu Activity Not available.
METAR KBNA 150853Z 00000KT 10SM BKN250 14/13 A3018 RMK AO2 SLP214 T01390128 58008

More Conditions Fewer Conditions

Pressure 30.17 in
Visibility 10.0 miles
Clouds Mostly Cloudy 25000 ft
Dew Point 57 °F
Humidity 99%
Rainfall 0.00 in
Snow Depth Not available.
UV 0 out of 12
Pollen 8.20 out of 12
Ozone Good
PM2.5 Good
Flu Activity Not available.
METAR KBNA 150853Z 00000KT 10SM BKN250 14/13 A3018 RMK AO2 SLP214 T01390128 58008

More Conditions Fewer Conditions

10-Day Weather Forecast

Almanac

Astronomy

Sep. 15, 2014 Rise Set
Actual Time 6:29 AM CDT 6:54 PM CDT
Civil Twilight 6:03 AM CDT 7:20 PM CDT
Nautical Twilight 5:33 AM CDT 7:50 PM CDT
Astronomical Twilight 5:02 AM CDT 8:20 PM CDT
Moon 11:47 PM CDT 1:18 PM CDT
Length of Visible Light 13h 16m
Length of Day
12h 24m
Tomorrow will be 2m 15s shorter.
Waning Gibbous, 57% of the Moon is Illuminated
Today
Waning Gibbous
Sep 15
Last Quarter
Sep 24
New
Oct 1
First Quarter
Oct 8
Full

Today's Extremes

State Highs State Lows

Community

WunderPhotos

Upload Photos

1,753,427 photos uploaded!

Nearby

Air Quality

  Air Quality AQ Index Pollutant
Yesterday Good
PM2.5
Yesterday Good
OZONE
Current Good
PM2.5
Current Good
OZONE
Monday Good
OZONE
Monday Good
PM2.5
Tuesday Moderate
PM2.5
Tuesday Good
OZONE

Snow Depth

Station Depth Elevation
No new snow has been reported.

Earthquake Activity

City Distance Mag. Time & Date
No recent earthquake activity has been reported nearby.
Minimum magnitude displayed is 2.5.

Coastal Water Temperatures

Place Temperature
No Stations Reporting

Nearby Weather Stations